sensor_id;sensor_type;location;lat;lon;timestamp;P1;durP1;ratioP1;P2;durP2;ratioP2
17852;SDS011;9052;53.494;14.376;2022-07-29T00:01:33;5.83;;;5.33;;
17852;SDS011;9052;53.494;14.376;2022-07-29T00:04:00;12.20;;;6.00;;
17852;SDS011;9052;53.494;14.376;2022-07-29T00:06:27;5.77;;;4.50;;
17852;SDS011;9052;53.494;14.376;2022-07-29T00:08:54;9.37;;;5.33;;
17852;SDS011;9052;53.494;14.376;2022-07-29T00:11:21;7.67;;;5.93;;
17852;SDS011;9052;53.494;14.376;2022-07-29T00:13:48;6.17;;;4.23;;
17852;SDS011;9052;53.494;14.376;2022-07-29T00:16:16;8.40;;;5.97;;
17852;SDS011;9052;53.494;14.376;2022-07-29T00:18:43;7.50;;;6.03;;
17852;SDS011;9052;53.494;14.376;2022-07-29T00:21:10;7.30;;;4.97;;
17852;SDS011;9052;53.494;14.376;2022-07-29T00:23:37;13.40;;;7.13;;
17852;SDS011;9052;53.494;14.376;2022-07-29T00:26:04;11.53;;;6.30;;
17852;SDS011;9052;53.494;14.376;2022-07-29T00:28:31;7.13;;;5.60;;
17852;SDS011;9052;53.494;14.376;2022-07-29T00:30:58;14.73;;;6.13;;
17852;SDS011;9052;53.494;14.376;2022-07-29T00:33:26;14.83;;;7.80;;
17852;SDS011;9052;53.494;14.376;2022-07-29T00:35:53;14.83;;;7.07;;
17852;SDS011;9052;53.494;14.376;2022-07-29T00:38:19;13.17;;;7.43;;
17852;SDS011;9052;53.494;14.376;2022-07-29T00:40:46;10.50;;;6.70;;
17852;SDS011;9052;53.494;14.376;2022-07-29T00:43:14;14.37;;;6.43;;
17852;SDS011;9052;53.494;14.376;2022-07-29T00:45:41;14.10;;;6.77;;
17852;SDS011;9052;53.494;14.376;2022-07-29T00:48:08;11.43;;;6.93;;
17852;SDS011;9052;53.494;14.376;2022-07-29T00:50:37;17.80;;;6.90;;
17852;SDS011;9052;53.494;14.376;2022-07-29T00:53:05;15.37;;;7.60;;
17852;SDS011;9052;53.494;14.376;2022-07-29T00:55:32;8.33;;;7.53;;
17852;SDS011;9052;53.494;14.376;2022-07-29T00:57:59;12.53;;;7.70;;
17852;SDS011;9052;53.494;14.376;2022-07-29T01:00:27;11.63;;;6.90;;
17852;SDS011;9052;53.494;14.376;2022-07-29T01:02:54;12.23;;;6.33;;
17852;SDS011;9052;53.494;14.376;2022-07-29T01:05:21;12.10;;;7.27;;
17852;SDS011;9052;53.494;14.376;2022-07-29T01:07:52;7.50;;;6.70;;
17852;SDS011;9052;53.494;14.376;2022-07-29T01:10:20;10.93;;;7.77;;
17852;SDS011;9052;53.494;14.376;2022-07-29T01:12:48;10.97;;;7.67;;
17852;SDS011;9052;53.494;14.376;2022-07-29T01:15:16;11.83;;;6.83;;
17852;SDS011;9052;53.494;14.376;2022-07-29T01:17:44;13.00;;;6.80;;
17852;SDS011;9052;53.494;14.376;2022-07-29T01:20:13;11.40;;;6.17;;
17852;SDS011;9052;53.494;14.376;2022-07-29T01:22:53;8.00;;;5.63;;
17852;SDS011;9052;53.494;14.376;2022-07-29T01:28:34;10.30;;;6.33;;
17852;SDS011;9052;53.494;14.376;2022-07-29T01:31:06;16.60;;;6.27;;
17852;SDS011;9052;53.494;14.376;2022-07-29T01:33:36;11.17;;;6.63;;
17852;SDS011;9052;53.494;14.376;2022-07-29T01:36:16;11.70;;;5.97;;
17852;SDS011;9052;53.494;14.376;2022-07-29T01:38:46;14.97;;;6.97;;
17852;SDS011;9052;53.494;14.376;2022-07-29T01:41:18;12.10;;;5.97;;
17852;SDS011;9052;53.494;14.376;2022-07-29T01:43:49;13.03;;;6.73;;
17852;SDS011;9052;53.494;14.376;2022-07-29T01:46:18;6.13;;;5.23;;
17852;SDS011;9052;53.494;14.376;2022-07-29T01:48:48;13.57;;;5.67;;
17852;SDS011;9052;53.494;14.376;2022-07-29T01:51:19;11.77;;;7.40;;
17852;SDS011;9052;53.494;14.376;2022-07-29T01:53:54;11.07;;;7.70;;
17852;SDS011;9052;53.494;14.376;2022-07-29T01:56:24;9.80;;;6.67;;
17852;SDS011;9052;53.494;14.376;2022-07-29T01:58:56;13.20;;;7.83;;
17852;SDS011;9052;53.494;14.376;2022-07-29T02:01:23;12.30;;;6.87;;
17852;SDS011;9052;53.494;14.376;2022-07-29T02:03:51;15.23;;;6.50;;
17852;SDS011;9052;53.494;14.376;2022-07-29T02:06:20;11.43;;;6.30;;
17852;SDS011;9052;53.494;14.376;2022-07-29T02:08:48;13.97;;;8.23;;
17852;SDS011;9052;53.494;14.376;2022-07-29T02:11:15;16.70;;;7.70;;
17852;SDS011;9052;53.494;14.376;2022-07-29T02:13:42;17.17;;;8.87;;
17852;SDS011;9052;53.494;14.376;2022-07-29T02:16:11;19.30;;;8.63;;
17852;SDS011;9052;53.494;14.376;2022-07-29T02:18:39;20.90;;;10.20;;
17852;SDS011;9052;53.494;14.376;2022-07-29T02:21:07;19.33;;;8.50;;
17852;SDS011;9052;53.494;14.376;2022-07-29T02:23:35;19.93;;;9.20;;
17852;SDS011;9052;53.494;14.376;2022-07-29T02:26:04;21.87;;;9.17;;
17852;SDS011;9052;53.494;14.376;2022-07-29T02:28:31;14.10;;;8.60;;
17852;SDS011;9052;53.494;14.376;2022-07-29T02:31:00;14.47;;;9.30;;
17852;SDS011;9052;53.494;14.376;2022-07-29T02:33:29;16.23;;;9.53;;
17852;SDS011;9052;53.494;14.376;2022-07-29T02:35:57;24.57;;;10.67;;
17852;SDS011;9052;53.494;14.376;2022-07-29T02:38:25;16.80;;;9.67;;
17852;SDS011;9052;53.494;14.376;2022-07-29T02:41:12;14.87;;;9.50;;
17852;SDS011;9052;53.494;14.376;2022-07-29T02:43:41;17.43;;;8.40;;
17852;SDS011;9052;53.494;14.376;2022-07-29T02:46:11;31.53;;;9.40;;
17852;SDS011;9052;53.494;14.376;2022-07-29T02:48:43;19.70;;;9.77;;
17852;SDS011;9052;53.494;14.376;2022-07-29T02:51:13;23.33;;;10.70;;
17852;SDS011;9052;53.494;14.376;2022-07-29T02:53:44;22.13;;;9.90;;
17852;SDS011;9052;53.494;14.376;2022-07-29T02:56:14;30.13;;;10.07;;
17852;SDS011;9052;53.494;14.376;2022-07-29T02:58:45;26.77;;;10.53;;
17852;SDS011;9052;53.494;14.376;2022-07-29T03:01:16;25.80;;;10.97;;
17852;SDS011;9052;53.494;14.376;2022-07-29T03:03:46;31.70;;;11.10;;
17852;SDS011;9052;53.494;14.376;2022-07-29T03:06:16;18.00;;;9.87;;
17852;SDS011;9052;53.494;14.376;2022-07-29T03:08:44;18.93;;;9.13;;
17852;SDS011;9052;53.494;14.376;2022-07-29T03:11:12;20.53;;;9.20;;
17852;SDS011;9052;53.494;14.376;2022-07-29T03:13:40;21.93;;;9.90;;
17852;SDS011;9052;53.494;14.376;2022-07-29T03:16:07;12.23;;;8.47;;
17852;SDS011;9052;53.494;14.376;2022-07-29T03:18:35;17.33;;;8.93;;
17852;SDS011;9052;53.494;14.376;2022-07-29T03:21:04;21.00;;;9.10;;
17852;SDS011;9052;53.494;14.376;2022-07-29T03:23:31;20.07;;;9.27;;
17852;SDS011;9052;53.494;14.376;2022-07-29T03:25:58;28.80;;;9.67;;
17852;SDS011;9052;53.494;14.376;2022-07-29T03:28:26;14.50;;;9.87;;
17852;SDS011;9052;53.494;14.376;2022-07-29T03:30:53;21.20;;;8.87;;
17852;SDS011;9052;53.494;14.376;2022-07-29T03:33:20;24.60;;;10.20;;
17852;SDS011;9052;53.494;14.376;2022-07-29T03:35:47;21.03;;;8.73;;
17852;SDS011;9052;53.494;14.376;2022-07-29T03:38:15;23.93;;;11.33;;
17852;SDS011;9052;53.494;14.376;2022-07-29T03:40:44;20.00;;;10.00;;
17852;SDS011;9052;53.494;14.376;2022-07-29T03:43:15;13.83;;;9.60;;
17852;SDS011;9052;53.494;14.376;2022-07-29T03:45:44;24.40;;;10.57;;
17852;SDS011;9052;53.494;14.376;2022-07-29T03:48:14;17.13;;;10.00;;
17852;SDS011;9052;53.494;14.376;2022-07-29T03:50:42;26.47;;;10.60;;
17852;SDS011;9052;53.494;14.376;2022-07-29T03:53:09;26.57;;;12.83;;
17852;SDS011;9052;53.494;14.376;2022-07-29T03:55:40;22.63;;;12.80;;
17852;SDS011;9052;53.494;14.376;2022-07-29T03:58:08;25.93;;;13.60;;
17852;SDS011;9052;53.494;14.376;2022-07-29T04:00:36;14.90;;;11.17;;
17852;SDS011;9052;53.494;14.376;2022-07-29T04:03:04;21.13;;;11.43;;
17852;SDS011;9052;53.494;14.376;2022-07-29T04:05:31;17.40;;;9.67;;
17852;SDS011;9052;53.494;14.376;2022-07-29T04:07:58;13.90;;;8.70;;
17852;SDS011;9052;53.494;14.376;2022-07-29T04:10:25;10.13;;;7.37;;
17852;SDS011;9052;53.494;14.376;2022-07-29T04:12:53;11.73;;;7.67;;
17852;SDS011;9052;53.494;14.376;2022-07-29T04:15:20;18.23;;;7.60;;
17852;SDS011;9052;53.494;14.376;2022-07-29T04:17:47;10.13;;;7.63;;
17852;SDS011;9052;53.494;14.376;2022-07-29T04:20:14;15.20;;;7.80;;
17852;SDS011;9052;53.494;14.376;2022-07-29T04:22:42;12.90;;;6.47;;
17852;SDS011;9052;53.494;14.376;2022-07-29T04:25:09;12.23;;;6.30;;
17852;SDS011;9052;53.494;14.376;2022-07-29T04:27:36;6.67;;;4.80;;
17852;SDS011;9052;53.494;14.376;2022-07-29T04:30:24;10.93;;;5.40;;
17852;SDS011;9052;53.494;14.376;2022-07-29T04:32:51;6.33;;;5.60;;
17852;SDS011;9052;53.494;14.376;2022-07-29T04:35:18;7.53;;;4.20;;
17852;SDS011;9052;53.494;14.376;2022-07-29T04:37:45;7.93;;;4.77;;
17852;SDS011;9052;53.494;14.376;2022-07-29T04:40:12;11.40;;;4.90;;
17852;SDS011;9052;53.494;14.376;2022-07-29T04:42:39;15.43;;;5.10;;
17852;SDS011;9052;53.494;14.376;2022-07-29T04:45:06;8.77;;;4.80;;
17852;SDS011;9052;53.494;14.376;2022-07-29T04:47:35;5.10;;;4.57;;
17852;SDS011;9052;53.494;14.376;2022-07-29T04:50:02;7.23;;;5.00;;
17852;SDS011;9052;53.494;14.376;2022-07-29T04:52:30;10.03;;;5.40;;
17852;SDS011;9052;53.494;14.376;2022-07-29T04:54:57;5.73;;;4.70;;
17852;SDS011;9052;53.494;14.376;2022-07-29T04:57:24;5.20;;;4.50;;
17852;SDS011;9052;53.494;14.376;2022-07-29T04:59:51;7.90;;;4.10;;
17852;SDS011;9052;53.494;14.376;2022-07-29T05:02:18;6.17;;;3.80;;
17852;SDS011;9052;53.494;14.376;2022-07-29T05:04:46;8.10;;;4.47;;
17852;SDS011;9052;53.494;14.376;2022-07-29T05:07:13;3.50;;;3.20;;
17852;SDS011;9052;53.494;14.376;2022-07-29T05:09:40;6.00;;;3.60;;
17852;SDS011;9052;53.494;14.376;2022-07-29T05:12:07;10.53;;;4.20;;
17852;SDS011;9052;53.494;14.376;2022-07-29T05:14:34;4.83;;;3.13;;
17852;SDS011;9052;53.494;14.376;2022-07-29T05:17:01;4.53;;;3.50;;
17852;SDS011;9052;53.494;14.376;2022-07-29T05:19:28;5.70;;;2.60;;
17852;SDS011;9052;53.494;14.376;2022-07-29T05:21:57;6.37;;;3.37;;
17852;SDS011;9052;53.494;14.376;2022-07-29T05:24:25;7.23;;;2.63;;
17852;SDS011;9052;53.494;14.376;2022-07-29T05:26:52;4.00;;;2.40;;
17852;SDS011;9052;53.494;14.376;2022-07-29T05:29:19;8.07;;;2.20;;
17852;SDS011;9052;53.494;14.376;2022-07-29T05:31:46;2.93;;;2.00;;
17852;SDS011;9052;53.494;14.376;2022-07-29T05:34:12;2.70;;;2.00;;
17852;SDS011;9052;53.494;14.376;2022-07-29T05:36:39;2.80;;;2.30;;
17852;SDS011;9052;53.494;14.376;2022-07-29T05:39:11;3.33;;;2.20;;
17852;SDS011;9052;53.494;14.376;2022-07-29T05:41:41;3.40;;;2.17;;
17852;SDS011;9052;53.494;14.376;2022-07-29T05:44:08;3.87;;;2.10;;
17852;SDS011;9052;53.494;14.376;2022-07-29T05:46:36;6.53;;;1.87;;
17852;SDS011;9052;53.494;14.376;2022-07-29T05:49:03;7.87;;;2.30;;
17852;SDS011;9052;53.494;14.376;2022-07-29T05:51:32;7.90;;;1.90;;
17852;SDS011;9052;53.494;14.376;2022-07-29T05:53:59;3.67;;;2.00;;
17852;SDS011;9052;53.494;14.376;2022-07-29T05:56:28;7.57;;;1.93;;
17852;SDS011;9052;53.494;14.376;2022-07-29T05:58:55;6.07;;;2.10;;
17852;SDS011;9052;53.494;14.376;2022-07-29T06:01:25;4.93;;;2.37;;
17852;SDS011;9052;53.494;14.376;2022-07-29T06:03:53;2.50;;;1.90;;
17852;SDS011;9052;53.494;14.376;2022-07-29T06:06:20;6.47;;;1.90;;
17852;SDS011;9052;53.494;14.376;2022-07-29T06:08:47;4.23;;;1.87;;
17852;SDS011;9052;53.494;14.376;2022-07-29T06:11:14;17.07;;;2.50;;
17852;SDS011;9052;53.494;14.376;2022-07-29T06:13:42;9.50;;;1.83;;
17852;SDS011;9052;53.494;14.376;2022-07-29T06:16:10;6.73;;;1.90;;
17852;SDS011;9052;53.494;14.376;2022-07-29T06:18:37;10.43;;;3.00;;
17852;SDS011;9052;53.494;14.376;2022-07-29T06:21:07;6.70;;;2.20;;
17852;SDS011;9052;53.494;14.376;2022-07-29T06:23:35;3.23;;;1.60;;
17852;SDS011;9052;53.494;14.376;2022-07-29T06:26:02;3.93;;;1.77;;
17852;SDS011;9052;53.494;14.376;2022-07-29T06:28:30;10.53;;;2.60;;
17852;SDS011;9052;53.494;14.376;2022-07-29T06:30:58;3.83;;;2.03;;
17852;SDS011;9052;53.494;14.376;2022-07-29T06:33:25;5.50;;;1.60;;
17852;SDS011;9052;53.494;14.376;2022-07-29T06:35:52;3.20;;;2.10;;
17852;SDS011;9052;53.494;14.376;2022-07-29T06:38:19;3.40;;;1.93;;
17852;SDS011;9052;53.494;14.376;2022-07-29T06:40:46;7.20;;;2.40;;
17852;SDS011;9052;53.494;14.376;2022-07-29T06:43:32;3.93;;;2.13;;
17852;SDS011;9052;53.494;14.376;2022-07-29T06:46:04;7.77;;;2.13;;
17852;SDS011;9052;53.494;14.376;2022-07-29T06:48:33;3.73;;;1.80;;
17852;SDS011;9052;53.494;14.376;2022-07-29T06:51:01;3.80;;;2.07;;
17852;SDS011;9052;53.494;14.376;2022-07-29T06:53:31;2.93;;;2.23;;
17852;SDS011;9052;53.494;14.376;2022-07-29T06:55:58;4.23;;;2.20;;
17852;SDS011;9052;53.494;14.376;2022-07-29T06:58:26;10.13;;;2.27;;
17852;SDS011;9052;53.494;14.376;2022-07-29T07:00:53;2.50;;;1.53;;
17852;SDS011;9052;53.494;14.376;2022-07-29T07:03:22;5.33;;;2.43;;
17852;SDS011;9052;53.494;14.376;2022-07-29T07:05:49;2.73;;;2.23;;
17852;SDS011;9052;53.494;14.376;2022-07-29T07:08:16;3.83;;;2.00;;
17852;SDS011;9052;53.494;14.376;2022-07-29T07:10:44;3.70;;;1.47;;
17852;SDS011;9052;53.494;14.376;2022-07-29T07:13:12;4.60;;;2.17;;
17852;SDS011;9052;53.494;14.376;2022-07-29T07:15:39;3.77;;;2.00;;
17852;SDS011;9052;53.494;14.376;2022-07-29T07:18:06;2.70;;;1.67;;
17852;SDS011;9052;53.494;14.376;2022-07-29T07:20:35;12.73;;;1.80;;
17852;SDS011;9052;53.494;14.376;2022-07-29T07:23:02;2.63;;;1.50;;
17852;SDS011;9052;53.494;14.376;2022-07-29T07:25:29;6.23;;;1.97;;
17852;SDS011;9052;53.494;14.376;2022-07-29T07:27:56;8.60;;;2.40;;
17852;SDS011;9052;53.494;14.376;2022-07-29T07:30:24;4.40;;;2.17;;
17852;SDS011;9052;53.494;14.376;2022-07-29T07:32:51;8.10;;;2.30;;
17852;SDS011;9052;53.494;14.376;2022-07-29T07:35:18;5.23;;;1.60;;
17852;SDS011;9052;53.494;14.376;2022-07-29T07:37:46;2.40;;;1.47;;
17852;SDS011;9052;53.494;14.376;2022-07-29T07:40:13;2.80;;;1.93;;
17852;SDS011;9052;53.494;14.376;2022-07-29T07:42:40;4.97;;;2.50;;
17852;SDS011;9052;53.494;14.376;2022-07-29T07:45:08;3.57;;;2.07;;
17852;SDS011;9052;53.494;14.376;2022-07-29T07:47:36;4.83;;;1.63;;
17852;SDS011;9052;53.494;14.376;2022-07-29T07:50:03;8.73;;;1.97;;
17852;SDS011;9052;53.494;14.376;2022-07-29T07:52:31;4.30;;;2.23;;
17852;SDS011;9052;53.494;14.376;2022-07-29T07:55:00;6.23;;;2.50;;
17852;SDS011;9052;53.494;14.376;2022-07-29T07:57:27;3.10;;;1.90;;
17852;SDS011;9052;53.494;14.376;2022-07-29T07:59:54;3.03;;;1.47;;
17852;SDS011;9052;53.494;14.376;2022-07-29T08:02:21;3.10;;;1.80;;
17852;SDS011;9052;53.494;14.376;2022-07-29T08:04:48;9.23;;;2.03;;
17852;SDS011;9052;53.494;14.376;2022-07-29T08:07:15;1.70;;;1.37;;
17852;SDS011;9052;53.494;14.376;2022-07-29T08:09:41;7.03;;;2.00;;
17852;SDS011;9052;53.494;14.376;2022-07-29T08:12:10;5.83;;;1.90;;
17852;SDS011;9052;53.494;14.376;2022-07-29T08:14:37;11.50;;;1.90;;
17852;SDS011;9052;53.494;14.376;2022-07-29T08:17:04;2.77;;;1.60;;
17852;SDS011;9052;53.494;14.376;2022-07-29T08:19:31;9.07;;;2.30;;
17852;SDS011;9052;53.494;14.376;2022-07-29T08:21:57;12.77;;;2.17;;
17852;SDS011;9052;53.494;14.376;2022-07-29T08:24:24;9.43;;;1.70;;
17852;SDS011;9052;53.494;14.376;2022-07-29T08:27:18;4.43;;;1.60;;
17852;SDS011;9052;53.494;14.376;2022-07-29T08:29:46;8.53;;;2.00;;
17852;SDS011;9052;53.494;14.376;2022-07-29T08:32:13;6.37;;;2.10;;
17852;SDS011;9052;53.494;14.376;2022-07-29T08:34:40;5.30;;;2.20;;
17852;SDS011;9052;53.494;14.376;2022-07-29T08:37:07;8.43;;;2.37;;
17852;SDS011;9052;53.494;14.376;2022-07-29T08:39:34;5.80;;;2.00;;
17852;SDS011;9052;53.494;14.376;2022-07-29T08:42:01;2.80;;;2.10;;
17852;SDS011;9052;53.494;14.376;2022-07-29T08:44:30;4.20;;;2.50;;
17852;SDS011;9052;53.494;14.376;2022-07-29T08:46:58;8.13;;;2.40;;
17852;SDS011;9052;53.494;14.376;2022-07-29T08:49:25;18.87;;;2.33;;
17852;SDS011;9052;53.494;14.376;2022-07-29T08:51:51;5.90;;;1.50;;
17852;SDS011;9052;53.494;14.376;2022-07-29T08:54:19;3.53;;;1.87;;
17852;SDS011;9052;53.494;14.376;2022-07-29T08:56:48;1.80;;;1.70;;
17852;SDS011;9052;53.494;14.376;2022-07-29T08:59:17;5.47;;;2.20;;
17852;SDS011;9052;53.494;14.376;2022-07-29T09:01:48;4.67;;;2.03;;
17852;SDS011;9052;53.494;14.376;2022-07-29T09:04:16;4.50;;;2.30;;
17852;SDS011;9052;53.494;14.376;2022-07-29T09:06:46;4.77;;;1.90;;
17852;SDS011;9052;53.494;14.376;2022-07-29T09:09:14;10.30;;;2.30;;
17852;SDS011;9052;53.494;14.376;2022-07-29T09:11:41;4.60;;;2.17;;
17852;SDS011;9052;53.494;14.376;2022-07-29T09:14:10;12.03;;;1.90;;
17852;SDS011;9052;53.494;14.376;2022-07-29T09:16:45;3.20;;;2.23;;
17852;SDS011;9052;53.494;14.376;2022-07-29T09:19:22;6.40;;;2.20;;
17852;SDS011;9052;53.494;14.376;2022-07-29T09:21:50;6.57;;;2.13;;
17852;SDS011;9052;53.494;14.376;2022-07-29T09:24:27;6.30;;;2.70;;
17852;SDS011;9052;53.494;14.376;2022-07-29T09:27:07;7.23;;;2.40;;
17852;SDS011;9052;53.494;14.376;2022-07-29T09:29:36;5.33;;;2.20;;
17852;SDS011;9052;53.494;14.376;2022-07-29T09:32:08;4.80;;;2.27;;
17852;SDS011;9052;53.494;14.376;2022-07-29T09:34:36;4.30;;;2.20;;
17852;SDS011;9052;53.494;14.376;2022-07-29T09:37:03;4.47;;;1.73;;
17852;SDS011;9052;53.494;14.376;2022-07-29T09:39:31;4.20;;;2.10;;
17852;SDS011;9052;53.494;14.376;2022-07-29T09:42:00;6.40;;;1.60;;
17852;SDS011;9052;53.494;14.376;2022-07-29T09:44:40;8.50;;;1.70;;
17852;SDS011;9052;53.494;14.376;2022-07-29T09:47:09;5.43;;;2.30;;
17852;SDS011;9052;53.494;14.376;2022-07-29T09:49:49;2.70;;;1.83;;
17852;SDS011;9052;53.494;14.376;2022-07-29T09:52:18;3.63;;;2.10;;
17852;SDS011;9052;53.494;14.376;2022-07-29T09:54:45;2.53;;;1.83;;
17852;SDS011;9052;53.494;14.376;2022-07-29T09:57:21;4.60;;;1.50;;
17852;SDS011;9052;53.494;14.376;2022-07-29T09:59:55;6.93;;;1.90;;
17852;SDS011;9052;53.494;14.376;2022-07-29T10:02:28;3.57;;;2.10;;
17852;SDS011;9052;53.494;14.376;2022-07-29T10:04:56;5.87;;;2.63;;
17852;SDS011;9052;53.494;14.376;2022-07-29T10:07:23;3.93;;;2.13;;
17852;SDS011;9052;53.494;14.376;2022-07-29T10:09:52;5.53;;;2.50;;
17852;SDS011;9052;53.494;14.376;2022-07-29T10:12:20;1.70;;;1.40;;
17852;SDS011;9052;53.494;14.376;2022-07-29T10:14:47;15.03;;;2.27;;
17852;SDS011;9052;53.494;14.376;2022-07-29T10:17:16;5.17;;;1.80;;
17852;SDS011;9052;53.494;14.376;2022-07-29T10:19:44;6.80;;;2.60;;
17852;SDS011;9052;53.494;14.376;2022-07-29T10:22:11;3.80;;;1.70;;
17852;SDS011;9052;53.494;14.376;2022-07-29T10:24:38;5.87;;;2.00;;
17852;SDS011;9052;53.494;14.376;2022-07-29T10:27:06;3.33;;;1.50;;
17852;SDS011;9052;53.494;14.376;2022-07-29T10:29:35;2.70;;;1.67;;
17852;SDS011;9052;53.494;14.376;2022-07-29T10:32:07;3.23;;;1.63;;
17852;SDS011;9052;53.494;14.376;2022-07-29T10:34:54;3.27;;;1.83;;
17852;SDS011;9052;53.494;14.376;2022-07-29T10:37:29;3.97;;;2.10;;
17852;SDS011;9052;53.494;14.376;2022-07-29T10:40:00;11.07;;;1.60;;
17852;SDS011;9052;53.494;14.376;2022-07-29T10:42:53;9.37;;;1.80;;
17852;SDS011;9052;53.494;14.376;2022-07-29T10:45:21;6.60;;;1.70;;
17852;SDS011;9052;53.494;14.376;2022-07-29T10:47:48;9.43;;;1.73;;
17852;SDS011;9052;53.494;14.376;2022-07-29T10:50:36;10.00;;;1.83;;
17852;SDS011;9052;53.494;14.376;2022-07-29T10:53:18;4.73;;;2.10;;
17852;SDS011;9052;53.494;14.376;2022-07-29T10:55:45;6.50;;;1.50;;
17852;SDS011;9052;53.494;14.376;2022-07-29T10:58:15;2.60;;;1.80;;
17852;SDS011;9052;53.494;14.376;2022-07-29T11:00:43;7.00;;;2.03;;
17852;SDS011;9052;53.494;14.376;2022-07-29T11:06:15;6.33;;;2.07;;
17852;SDS011;9052;53.494;14.376;2022-07-29T11:08:43;9.90;;;2.20;;
17852;SDS011;9052;53.494;14.376;2022-07-29T11:14:01;4.87;;;1.70;;
17852;SDS011;9052;53.494;14.376;2022-07-29T11:19:26;6.73;;;2.17;;
17852;SDS011;9052;53.494;14.376;2022-07-29T11:21:55;11.83;;;1.90;;
17852;SDS011;9052;53.494;14.376;2022-07-29T11:24:22;3.17;;;1.47;;
17852;SDS011;9052;53.494;14.376;2022-07-29T11:27:11;1.60;;;1.50;;
17852;SDS011;9052;53.494;14.376;2022-07-29T11:29:49;6.93;;;2.07;;
17852;SDS011;9052;53.494;14.376;2022-07-29T11:32:20;2.77;;;2.40;;
17852;SDS011;9052;53.494;14.376;2022-07-29T11:34:48;9.43;;;1.80;;
17852;SDS011;9052;53.494;14.376;2022-07-29T11:37:20;11.93;;;1.97;;
17852;SDS011;9052;53.494;14.376;2022-07-29T11:42:40;2.30;;;1.40;;
17852;SDS011;9052;53.494;14.376;2022-07-29T11:45:09;5.77;;;1.47;;
17852;SDS011;9052;53.494;14.376;2022-07-29T11:47:39;6.57;;;2.17;;
17852;SDS011;9052;53.494;14.376;2022-07-29T11:50:07;3.67;;;2.10;;
17852;SDS011;9052;53.494;14.376;2022-07-29T11:52:38;2.30;;;1.83;;
17852;SDS011;9052;53.494;14.376;2022-07-29T11:55:11;12.70;;;2.70;;
17852;SDS011;9052;53.494;14.376;2022-07-29T11:57:45;6.13;;;1.70;;
17852;SDS011;9052;53.494;14.376;2022-07-29T12:00:20;4.10;;;1.97;;
17852;SDS011;9052;53.494;14.376;2022-07-29T12:02:49;2.70;;;1.70;;
17852;SDS011;9052;53.494;14.376;2022-07-29T12:05:17;7.47;;;1.80;;
17852;SDS011;9052;53.494;14.376;2022-07-29T12:07:45;5.40;;;1.80;;
17852;SDS011;9052;53.494;14.376;2022-07-29T12:10:13;12.53;;;2.23;;
17852;SDS011;9052;53.494;14.376;2022-07-29T12:12:40;2.17;;;1.60;;
17852;SDS011;9052;53.494;14.376;2022-07-29T12:15:14;3.63;;;2.10;;
17852;SDS011;9052;53.494;14.376;2022-07-29T12:17:45;3.80;;;1.90;;
17852;SDS011;9052;53.494;14.376;2022-07-29T12:20:12;2.13;;;1.40;;
17852;SDS011;9052;53.494;14.376;2022-07-29T12:22:42;3.70;;;1.80;;
17852;SDS011;9052;53.494;14.376;2022-07-29T12:25:11;2.20;;;1.80;;
17852;SDS011;9052;53.494;14.376;2022-07-29T12:27:40;5.07;;;1.77;;
17852;SDS011;9052;53.494;14.376;2022-07-29T12:30:09;7.80;;;1.47;;
17852;SDS011;9052;53.494;14.376;2022-07-29T12:32:38;2.80;;;1.30;;
17852;SDS011;9052;53.494;14.376;2022-07-29T12:35:07;8.60;;;2.10;;
17852;SDS011;9052;53.494;14.376;2022-07-29T12:37:35;6.93;;;2.40;;
17852;SDS011;9052;53.494;14.376;2022-07-29T12:40:04;3.77;;;1.47;;
17852;SDS011;9052;53.494;14.376;2022-07-29T12:42:33;7.90;;;2.17;;
17852;SDS011;9052;53.494;14.376;2022-07-29T12:45:01;3.03;;;1.37;;
17852;SDS011;9052;53.494;14.376;2022-07-29T12:47:28;18.23;;;1.63;;
17852;SDS011;9052;53.494;14.376;2022-07-29T12:52:43;7.73;;;1.70;;
17852;SDS011;9052;53.494;14.376;2022-07-29T12:55:11;3.93;;;1.40;;
17852;SDS011;9052;53.494;14.376;2022-07-29T12:57:46;18.00;;;2.87;;
17852;SDS011;9052;53.494;14.376;2022-07-29T13:00:14;9.83;;;1.90;;
17852;SDS011;9052;53.494;14.376;2022-07-29T13:02:42;5.60;;;1.30;;
17852;SDS011;9052;53.494;14.376;2022-07-29T13:05:10;6.33;;;1.30;;
17852;SDS011;9052;53.494;14.376;2022-07-29T13:07:38;2.00;;;1.53;;
17852;SDS011;9052;53.494;14.376;2022-07-29T13:10:12;2.30;;;1.53;;
17852;SDS011;9052;53.494;14.376;2022-07-29T13:15:31;4.57;;;1.20;;
17852;SDS011;9052;53.494;14.376;2022-07-29T13:17:58;8.73;;;1.80;;
17852;SDS011;9052;53.494;14.376;2022-07-29T13:20:26;5.73;;;1.50;;
17852;SDS011;9052;53.494;14.376;2022-07-29T13:22:55;8.80;;;1.50;;
17852;SDS011;9052;53.494;14.376;2022-07-29T13:25:25;5.90;;;1.23;;
17852;SDS011;9052;53.494;14.376;2022-07-29T13:27:52;3.07;;;1.73;;
17852;SDS011;9052;53.494;14.376;2022-07-29T13:30:22;6.17;;;1.63;;
17852;SDS011;9052;53.494;14.376;2022-07-29T13:32:49;9.97;;;1.93;;
17852;SDS011;9052;53.494;14.376;2022-07-29T13:35:17;5.53;;;1.80;;
17852;SDS011;9052;53.494;14.376;2022-07-29T13:37:45;4.03;;;1.50;;
17852;SDS011;9052;53.494;14.376;2022-07-29T13:40:12;5.23;;;1.80;;
17852;SDS011;9052;53.494;14.376;2022-07-29T13:42:40;9.50;;;1.73;;
17852;SDS011;9052;53.494;14.376;2022-07-29T13:45:08;2.97;;;1.73;;
17852;SDS011;9052;53.494;14.376;2022-07-29T13:47:38;2.73;;;1.93;;
17852;SDS011;9052;53.494;14.376;2022-07-29T13:50:05;3.67;;;2.20;;
17852;SDS011;9052;53.494;14.376;2022-07-29T13:52:35;8.53;;;2.37;;
17852;SDS011;9052;53.494;14.376;2022-07-29T13:55:05;4.33;;;1.30;;
17852;SDS011;9052;53.494;14.376;2022-07-29T13:57:34;4.07;;;1.93;;
17852;SDS011;9052;53.494;14.376;2022-07-29T14:00:01;5.27;;;1.90;;
17852;SDS011;9052;53.494;14.376;2022-07-29T14:02:28;2.73;;;1.73;;
17852;SDS011;9052;53.494;14.376;2022-07-29T14:04:56;10.97;;;2.37;;
17852;SDS011;9052;53.494;14.376;2022-07-29T14:07:23;3.43;;;1.47;;
17852;SDS011;9052;53.494;14.376;2022-07-29T14:09:50;6.93;;;1.87;;
17852;SDS011;9052;53.494;14.376;2022-07-29T14:12:17;3.47;;;2.40;;
17852;SDS011;9052;53.494;14.376;2022-07-29T14:14:44;3.73;;;1.67;;
17852;SDS011;9052;53.494;14.376;2022-07-29T14:17:11;2.17;;;1.50;;
17852;SDS011;9052;53.494;14.376;2022-07-29T14:19:38;3.50;;;1.80;;
17852;SDS011;9052;53.494;14.376;2022-07-29T14:22:07;3.73;;;1.40;;
17852;SDS011;9052;53.494;14.376;2022-07-29T14:24:35;1.30;;;1.17;;
17852;SDS011;9052;53.494;14.376;2022-07-29T14:27:02;5.10;;;1.53;;
17852;SDS011;9052;53.494;14.376;2022-07-29T14:29:29;3.70;;;1.63;;
17852;SDS011;9052;53.494;14.376;2022-07-29T14:31:56;8.03;;;1.50;;
17852;SDS011;9052;53.494;14.376;2022-07-29T14:34:23;2.83;;;1.80;;
17852;SDS011;9052;53.494;14.376;2022-07-29T14:36:51;6.20;;;1.60;;
17852;SDS011;9052;53.494;14.376;2022-07-29T14:39:22;6.53;;;1.93;;
17852;SDS011;9052;53.494;14.376;2022-07-29T14:41:49;8.43;;;1.97;;
17852;SDS011;9052;53.494;14.376;2022-07-29T14:44:16;2.40;;;1.50;;
17852;SDS011;9052;53.494;14.376;2022-07-29T14:46:43;2.90;;;1.57;;
17852;SDS011;9052;53.494;14.376;2022-07-29T14:49:10;2.50;;;1.73;;
17852;SDS011;9052;53.494;14.376;2022-07-29T14:51:37;3.13;;;1.70;;
17852;SDS011;9052;53.494;14.376;2022-07-29T14:54:04;12.07;;;3.00;;
17852;SDS011;9052;53.494;14.376;2022-07-29T14:56:35;2.23;;;1.33;;
17852;SDS011;9052;53.494;14.376;2022-07-29T14:59:02;2.90;;;1.60;;
17852;SDS011;9052;53.494;14.376;2022-07-29T15:01:29;6.77;;;1.37;;
17852;SDS011;9052;53.494;14.376;2022-07-29T15:03:56;7.63;;;2.07;;
17852;SDS011;9052;53.494;14.376;2022-07-29T15:06:23;9.83;;;1.53;;
17852;SDS011;9052;53.494;14.376;2022-07-29T15:08:50;3.80;;;1.70;;
17852;SDS011;9052;53.494;14.376;2022-07-29T15:11:17;3.60;;;1.60;;
17852;SDS011;9052;53.494;14.376;2022-07-29T15:13:45;11.10;;;2.60;;